sensor_id;sensor_type;location;lat;lon;timestamp;pressure;altitude;pressure_sealevel;temperature;humidity
59650;BME280;46162;57.568;25.814;2024-03-22T00:01:52;100702.44;;;3.04;100.00
59650;BME280;46162;57.568;25.814;2024-03-22T00:04:21;100684.63;;;3.04;100.00
59650;BME280;46162;57.568;25.814;2024-03-22T00:06:49;100681.09;;;3.04;100.00
59650;BME280;46162;57.568;25.814;2024-03-22T00:09:17;100676.75;;;3.03;100.00
59650;BME280;46162;57.568;25.814;2024-03-22T00:11:44;100678.56;;;3.02;100.00
59650;BME280;46162;57.568;25.814;2024-03-22T00:14:13;100671.63;;;2.99;100.00
59650;BME280;46162;57.568;25.814;2024-03-22T00:16:39;100662.75;;;2.99;100.00
59650;BME280;46162;57.568;25.814;2024-03-22T00:19:07;100662.75;;;2.99;100.00
59650;BME280;46162;57.568;25.814;2024-03-22T00:21:35;100661.88;;;2.98;100.00
59650;BME280;46162;57.568;25.814;2024-03-22T00:24:02;100652.28;;;2.96;100.00
59650;BME280;46162;57.568;25.814;2024-03-22T00:26:29;100643.53;;;2.94;100.00
59650;BME280;46162;57.568;25.814;2024-03-22T00:28:56;100644.41;;;2.94;100.00
59650;BME280;46162;57.568;25.814;2024-03-22T00:31:24;100644.41;;;2.94;100.00
59650;BME280;46162;57.568;25.814;2024-03-22T00:33:52;100637.34;;;2.93;100.00
59650;BME280;46162;57.568;25.814;2024-03-22T00:36:18;100635.75;;;2.91;100.00
59650;BME280;46162;57.568;25.814;2024-03-22T00:38:47;100633.06;;;2.91;100.00
59650;BME280;46162;57.568;25.814;2024-03-22T00:41:14;100626.22;;;2.87;100.00
59650;BME280;46162;57.568;25.814;2024-03-22T00:43:41;100624.44;;;2.87;100.00
59650;BME280;46162;57.568;25.814;2024-03-22T00:46:08;100628.91;;;2.87;100.00
59650;BME280;46162;57.568;25.814;2024-03-22T00:48:35;100628.81;;;2.88;100.00
59650;BME280;46162;57.568;25.814;2024-03-22T00:51:02;100621.88;;;2.86;100.00
59650;BME280;46162;57.568;25.814;2024-03-22T00:53:30;100621.78;;;2.87;100.00
59650;BME280;46162;57.568;25.814;2024-03-22T00:55:58;100612.91;;;2.87;100.00
59650;BME280;46162;57.568;25.814;2024-03-22T00:58:27;100620.91;;;2.87;100.00
59650;BME280;46162;57.568;25.814;2024-03-22T01:00:53;100618.22;;;2.87;100.00
59650;BME280;46162;57.568;25.814;2024-03-22T01:03:21;100619.97;;;2.88;100.00
59650;BME280;46162;57.568;25.814;2024-03-22T01:05:47;100621.03;;;2.85;100.00
59650;BME280;46162;57.568;25.814;2024-03-22T01:08:15;100629.88;;;2.86;100.00
59650;BME280;46162;57.568;25.814;2024-03-22T01:10:41;100625.38;;;2.86;100.00
59650;BME280;46162;57.568;25.814;2024-03-22T01:13:10;100616.63;;;2.84;100.00
59650;BME280;46162;57.568;25.814;2024-03-22T01:15:37;100611.41;;;2.83;100.00
59650;BME280;46162;57.568;25.814;2024-03-22T01:18:05;100608.84;;;2.81;100.00
59650;BME280;46162;57.568;25.814;2024-03-22T01:20:31;100605.34;;;2.80;100.00
59650;BME280;46162;57.568;25.814;2024-03-22T01:22:59;100601.91;;;2.78;100.00
59650;BME280;46162;57.568;25.814;2024-03-22T01:25:26;100604.47;;;2.80;100.00
59650;BME280;46162;57.568;25.814;2024-03-22T01:27:53;100604.47;;;2.80;100.00
59650;BME280;46162;57.568;25.814;2024-03-22T01:30:21;100592.09;;;2.79;100.00
59650;BME280;46162;57.568;25.814;2024-03-22T01:32:49;100599.25;;;2.78;100.00
59650;BME280;46162;57.568;25.814;2024-03-22T01:35:16;100599.25;;;2.78;100.00
59650;BME280;46162;57.568;25.814;2024-03-22T01:37:43;100598.41;;;2.78;100.00
59650;BME280;46162;57.568;25.814;2024-03-22T01:40:11;100604.56;;;2.78;100.00
59650;BME280;46162;57.568;25.814;2024-03-22T01:42:39;100602.88;;;2.77;100.00
59650;BME280;46162;57.568;25.814;2024-03-22T01:45:07;100599.25;;;2.78;100.00
59650;BME280;46162;57.568;25.814;2024-03-22T01:47:36;100607.25;;;2.78;100.00
59650;BME280;46162;57.568;25.814;2024-03-22T01:50:04;100608.97;;;2.79;100.00
59650;BME280;46162;57.568;25.814;2024-03-22T01:52:31;100606.31;;;2.79;100.00
59650;BME280;46162;57.568;25.814;2024-03-22T01:54:59;100599.38;;;2.77;100.00
59650;BME280;46162;57.568;25.814;2024-03-22T01:57:25;100601.06;;;2.78;100.00
59650;BME280;46162;57.568;25.814;2024-03-22T01:59:55;100595.72;;;2.78;100.00
59650;BME280;46162;57.568;25.814;2024-03-22T02:02:23;100601.28;;;2.75;100.00
59650;BME280;46162;57.568;25.814;2024-03-22T02:04:52;100598.69;;;2.73;100.00
59650;BME280;46162;57.568;25.814;2024-03-22T02:07:18;100597.00;;;2.72;100.00
59650;BME280;46162;57.568;25.814;2024-03-22T02:09:46;100597.19;;;2.69;100.00
59650;BME280;46162;57.568;25.814;2024-03-22T02:12:12;100599.75;;;2.71;100.00
59650;BME280;46162;57.568;25.814;2024-03-22T02:14:40;100588.34;;;2.69;100.00
59650;BME280;46162;57.568;25.814;2024-03-22T02:17:06;100585.59;;;2.70;100.00
59650;BME280;46162;57.568;25.814;2024-03-22T02:19:34;100584.75;;;2.70;100.00
59650;BME280;46162;57.568;25.814;2024-03-22T02:22:02;100591.00;;;2.69;100.00
59650;BME280;46162;57.568;25.814;2024-03-22T02:24:31;100598.06;;;2.70;100.00
59650;BME280;46162;57.568;25.814;2024-03-22T02:26:57;100597.19;;;2.69;100.00
59650;BME280;46162;57.568;25.814;2024-03-22T02:29:25;100588.34;;;2.69;100.00
59650;BME280;46162;57.568;25.814;2024-03-22T02:31:51;100602.75;;;2.66;100.00
59650;BME280;46162;57.568;25.814;2024-03-22T02:34:19;100595.50;;;2.68;100.00
59650;BME280;46162;57.568;25.814;2024-03-22T02:36:45;100595.72;;;2.65;100.00
59650;BME280;46162;57.568;25.814;2024-03-22T02:39:13;100585.06;;;2.65;100.00
59650;BME280;46162;57.568;25.814;2024-03-22T02:41:41;100579.81;;;2.64;100.00
59650;BME280;46162;57.568;25.814;2024-03-22T02:44:08;100591.22;;;2.66;100.00
59650;BME280;46162;57.568;25.814;2024-03-22T02:46:34;100588.66;;;2.64;100.00
59650;BME280;46162;57.568;25.814;2024-03-22T02:49:02;100583.44;;;2.63;100.00
59650;BME280;46162;57.568;25.814;2024-03-22T02:51:28;100587.81;;;2.64;100.00
59650;BME280;46162;57.568;25.814;2024-03-22T02:53:56;100585.25;;;2.62;100.00
59650;BME280;46162;57.568;25.814;2024-03-22T02:56:23;100586.28;;;2.59;100.00
59650;BME280;46162;57.568;25.814;2024-03-22T02:58:51;100596.09;;;2.59;100.00
59650;BME280;46162;57.568;25.814;2024-03-22T03:01:18;100597.06;;;2.58;100.00
59650;BME280;46162;57.568;25.814;2024-03-22T03:03:45;100591.84;;;2.56;100.00
59650;BME280;46162;57.568;25.814;2024-03-22T03:06:12;100598.13;;;2.55;100.00
59650;BME280;46162;57.568;25.814;2024-03-22T03:08:39;100599.97;;;2.55;100.00
59650;BME280;46162;57.568;25.814;2024-03-22T03:11:07;100607.19;;;2.53;100.00
59650;BME280;46162;57.568;25.814;2024-03-22T03:13:33;100601.88;;;2.53;100.00
59650;BME280;46162;57.568;25.814;2024-03-22T03:16:02;100614.34;;;2.52;100.00
59650;BME280;46162;57.568;25.814;2024-03-22T03:18:29;100610.06;;;2.50;100.00
59650;BME280;46162;57.568;25.814;2024-03-22T03:20:56;100614.66;;;2.48;100.00
59650;BME280;46162;57.568;25.814;2024-03-22T03:23:23;100618.06;;;2.50;100.00
59650;BME280;46162;57.568;25.814;2024-03-22T03:25:50;100625.31;;;2.48;100.00
59650;BME280;46162;57.568;25.814;2024-03-22T03:28:17;100627.09;;;2.47;100.00
59650;BME280;46162;57.568;25.814;2024-03-22T03:30:44;100621.88;;;2.46;100.00
59650;BME280;46162;57.568;25.814;2024-03-22T03:33:12;100623.78;;;2.44;100.00
59650;BME280;46162;57.568;25.814;2024-03-22T03:35:40;100629.13;;;2.44;100.00
59650;BME280;46162;57.568;25.814;2024-03-22T03:38:06;100646.81;;;2.45;100.00
59650;BME280;46162;57.568;25.814;2024-03-22T03:40:34;100641.69;;;2.42;100.00
59650;BME280;46162;57.568;25.814;2024-03-22T03:43:01;100633.81;;;2.40;100.00
59650;BME280;46162;57.568;25.814;2024-03-22T03:45:28;100630.16;;;2.41;100.00
59650;BME280;46162;57.568;25.814;2024-03-22T03:47:55;100617.81;;;2.40;100.00
59650;BME280;46162;57.568;25.814;2024-03-22T03:50:24;100621.41;;;2.39;100.00
59650;BME280;46162;57.568;25.814;2024-03-22T03:52:50;100624.19;;;2.38;100.00
59650;BME280;46162;57.568;25.814;2024-03-22T03:55:18;100618.88;;;2.38;100.00
59650;BME280;46162;57.568;25.814;2024-03-22T03:57:44;100611.94;;;2.35;100.00
59650;BME280;46162;57.568;25.814;2024-03-22T04:00:12;100613.94;;;2.31;100.00
59650;BME280;46162;57.568;25.814;2024-03-22T04:02:39;100613.16;;;2.29;100.00
59650;BME280;46162;57.568;25.814;2024-03-22T04:05:07;100615.06;;;2.27;100.00
59650;BME280;46162;57.568;25.814;2024-03-22T04:07:37;100609.03;;;2.25;100.00
59650;BME280;46162;57.568;25.814;2024-03-22T04:10:06;100599.31;;;2.24;100.00
59650;BME280;46162;57.568;25.814;2024-03-22T04:12:32;100585.13;;;2.24;100.00
59650;BME280;46162;57.568;25.814;2024-03-22T04:15:00;100585.78;;;2.27;100.00
59650;BME280;46162;57.568;25.814;2024-03-22T04:17:27;100577.91;;;2.26;100.00
59650;BME280;46162;57.568;25.814;2024-03-22T04:19:54;100561.16;;;2.24;100.00
59650;BME280;46162;57.568;25.814;2024-03-22T04:22:21;100556.91;;;2.21;100.00
59650;BME280;46162;57.568;25.814;2024-03-22T04:24:50;100559.56;;;2.21;100.00
59650;BME280;46162;57.568;25.814;2024-03-22T04:27:17;100564.88;;;2.21;100.00
59650;BME280;46162;57.568;25.814;2024-03-22T04:29:47;100562.59;;;2.15;100.00
59650;BME280;46162;57.568;25.814;2024-03-22T04:32:14;100570.59;;;2.15;100.00
59650;BME280;46162;57.568;25.814;2024-03-22T04:34:41;100563.66;;;2.12;100.00
59650;BME280;46162;57.568;25.814;2024-03-22T04:37:08;100565.28;;;2.15;100.00
59650;BME280;46162;57.568;25.814;2024-03-22T04:39:37;100567.00;;;2.16;100.00
59650;BME280;46162;57.568;25.814;2024-03-22T04:42:07;100560.91;;;2.14;100.00
59650;BME280;46162;57.568;25.814;2024-03-22T04:44:38;100553.78;;;2.14;100.00
59650;BME280;46162;57.568;25.814;2024-03-22T04:47:06;100555.59;;;2.14;100.00
59650;BME280;46162;57.568;25.814;2024-03-22T04:49:32;100550.25;;;2.14;100.00
59650;BME280;46162;57.568;25.814;2024-03-22T04:52:00;100546.63;;;2.15;100.00
59650;BME280;46162;57.568;25.814;2024-03-22T04:54:27;100545.91;;;2.13;100.00
59650;BME280;46162;57.568;25.814;2024-03-22T04:56:54;100540.66;;;2.11;100.00
59650;BME280;46162;57.568;25.814;2024-03-22T04:59:22;100546.75;;;2.13;100.00
59650;BME280;46162;57.568;25.814;2024-03-22T05:01:50;100551.03;;;2.16;100.00
59650;BME280;46162;57.568;25.814;2024-03-22T05:04:18;100551.03;;;2.16;100.00
59650;BME280;46162;57.568;25.814;2024-03-22T05:06:44;100549.28;;;2.15;100.00
59650;BME280;46162;57.568;25.814;2024-03-22T05:09:12;100556.34;;;2.16;100.00
59650;BME280;46162;57.568;25.814;2024-03-22T05:11:38;100543.78;;;2.18;100.00
59650;BME280;46162;57.568;25.814;2024-03-22T05:14:06;100542.81;;;2.19;100.00
59650;BME280;46162;57.568;25.814;2024-03-22T05:16:34;100536.56;;;2.20;100.00
59650;BME280;46162;57.568;25.814;2024-03-22T05:19:02;100548.69;;;2.24;100.00
59650;BME280;46162;57.568;25.814;2024-03-22T05:21:28;100560.19;;;2.25;100.00
59650;BME280;46162;57.568;25.814;2024-03-22T05:23:56;100550.50;;;2.24;100.00
59650;BME280;46162;57.568;25.814;2024-03-22T05:26:22;100568.00;;;2.28;100.00
59650;BME280;46162;57.568;25.814;2024-03-22T05:28:50;100555.31;;;2.31;100.00
59650;BME280;46162;57.568;25.814;2024-03-22T05:31:17;100562.34;;;2.32;100.00
59650;BME280;46162;57.568;25.814;2024-03-22T05:33:46;100554.34;;;2.32;100.00
59650;BME280;46162;57.568;25.814;2024-03-22T05:36:12;100546.19;;;2.35;100.00
59650;BME280;46162;57.568;25.814;2024-03-22T05:38:40;100534.47;;;2.38;100.00
59650;BME280;46162;57.568;25.814;2024-03-22T05:41:07;100547.66;;;2.40;100.00
59650;BME280;46162;57.568;25.814;2024-03-22T05:43:34;100539.66;;;2.40;100.00
59650;BME280;46162;57.568;25.814;2024-03-22T05:46:01;100542.34;;;2.40;100.00
59650;BME280;46162;57.568;25.814;2024-03-22T05:48:30;100533.63;;;2.38;100.00
59650;BME280;46162;57.568;25.814;2024-03-22T05:50:58;100540.72;;;2.37;100.00
59650;BME280;46162;57.568;25.814;2024-03-22T05:53:25;100530.19;;;2.35;100.00
59650;BME280;46162;57.568;25.814;2024-03-22T05:55:51;100524.88;;;2.35;100.00
59650;BME280;46162;57.568;25.814;2024-03-22T05:58:19;100515.16;;;2.34;100.00
59650;BME280;46162;57.568;25.814;2024-03-22T06:00:46;100510.69;;;2.35;100.00
59650;BME280;46162;57.568;25.814;2024-03-22T06:03:14;100514.38;;;2.32;100.00
59650;BME280;46162;57.568;25.814;2024-03-22T06:05:41;100502.78;;;2.33;100.00
59650;BME280;46162;57.568;25.814;2024-03-22T06:08:10;100496.72;;;2.31;100.00
59650;BME280;46162;57.568;25.814;2024-03-22T06:10:36;100495.75;;;2.32;100.00
59650;BME280;46162;57.568;25.814;2024-03-22T06:13:04;100503.72;;;2.32;100.00
59650;BME280;46162;57.568;25.814;2024-03-22T06:15:30;100500.13;;;2.33;100.00
59650;BME280;46162;57.568;25.814;2024-03-22T06:17:58;100500.97;;;2.34;100.00
59650;BME280;46162;57.568;25.814;2024-03-22T06:20:24;100499.16;;;2.34;100.00
59650;BME280;46162;57.568;25.814;2024-03-22T06:22:52;100496.50;;;2.34;100.00
59650;BME280;46162;57.568;25.814;2024-03-22T06:25:19;100495.34;;;2.39;100.00
59650;BME280;46162;57.568;25.814;2024-03-22T06:27:47;100487.34;;;2.39;100.00
59650;BME280;46162;57.568;25.814;2024-03-22T06:30:14;100493.53;;;2.39;100.00
59650;BME280;46162;57.568;25.814;2024-03-22T06:32:42;100494.50;;;2.38;100.00
59650;BME280;46162;57.568;25.814;2024-03-22T06:35:08;100490.97;;;2.38;100.00
59650;BME280;46162;57.568;25.814;2024-03-22T06:37:38;100498.97;;;2.38;100.00
59650;BME280;46162;57.568;25.814;2024-03-22T06:40:06;100492.69;;;2.39;100.00
59650;BME280;46162;57.568;25.814;2024-03-22T06:42:35;100504.94;;;2.41;100.00
59650;BME280;46162;57.568;25.814;2024-03-22T06:45:02;100501.66;;;2.38;100.00
59650;BME280;46162;57.568;25.814;2024-03-22T06:47:30;100498.97;;;2.38;100.00
59650;BME280;46162;57.568;25.814;2024-03-22T06:49:57;100496.41;;;2.36;100.00
59650;BME280;46162;57.568;25.814;2024-03-22T06:52:25;100500.75;;;2.37;100.00
59650;BME280;46162;57.568;25.814;2024-03-22T06:54:51;100498.84;;;2.39;100.00
59650;BME280;46162;57.568;25.814;2024-03-22T06:57:19;100493.53;;;2.39;100.00
59650;BME280;46162;57.568;25.814;2024-03-22T06:59:47;100481.28;;;2.36;100.00
59650;BME280;46162;57.568;25.814;2024-03-22T07:02:14;100486.38;;;2.40;100.00
59650;BME280;46162;57.568;25.814;2024-03-22T07:04:41;100482.03;;;2.39;100.00
59650;BME280;46162;57.568;25.814;2024-03-22T07:07:09;100482.88;;;2.39;100.00
59650;BME280;46162;57.568;25.814;2024-03-22T07:09:35;100467.94;;;2.36;100.00
59650;BME280;46162;57.568;25.814;2024-03-22T07:12:03;100457.19;;;2.38;100.00
59650;BME280;46162;57.568;25.814;2024-03-22T07:14:29;100441.09;;;2.40;100.00
59650;BME280;46162;57.568;25.814;2024-03-22T07:16:58;100440.25;;;2.39;100.00
59650;BME280;46162;57.568;25.814;2024-03-22T07:19:25;100440.91;;;2.43;100.00
59650;BME280;46162;57.568;25.814;2024-03-22T07:21:54;100429.38;;;2.42;100.00
59650;BME280;46162;57.568;25.814;2024-03-22T07:24:20;100415.72;;;2.47;100.00
59650;BME280;46162;57.568;25.814;2024-03-22T07:26:50;100412.88;;;2.50;100.00
59650;BME280;46162;57.568;25.814;2024-03-22T07:29:16;100403.91;;;2.51;100.00
59650;BME280;46162;57.568;25.814;2024-03-22T07:31:44;100406.34;;;2.54;100.00
59650;BME280;46162;57.568;25.814;2024-03-22T07:34:14;100393.03;;;2.54;100.00
59650;BME280;46162;57.568;25.814;2024-03-22T07:36:42;100391.84;;;2.58;100.00
59650;BME280;46162;57.568;25.814;2024-03-22T07:39:09;100385.56;;;2.59;100.00
59650;BME280;46162;57.568;25.814;2024-03-22T07:41:36;100379.47;;;2.57;100.00
59650;BME280;46162;57.568;25.814;2024-03-22T07:44:03;100369.03;;;2.54;100.00
59650;BME280;46162;57.568;25.814;2024-03-22T07:46:31;100362.63;;;2.56;100.00
59650;BME280;46162;57.568;25.814;2024-03-22T07:48:59;100356.56;;;2.54;100.00
59650;BME280;46162;57.568;25.814;2024-03-22T07:51:29;100351.44;;;2.51;100.00
59650;BME280;46162;57.568;25.814;2024-03-22T07:53:55;100351.59;;;2.50;100.00
59650;BME280;46162;57.568;25.814;2024-03-22T07:56:23;100349.94;;;2.47;100.00
59650;BME280;46162;57.568;25.814;2024-03-22T07:58:49;100346.44;;;2.47;100.00
59650;BME280;46162;57.568;25.814;2024-03-22T08:01:17;100343.16;;;2.43;100.00
59650;BME280;46162;57.568;25.814;2024-03-22T08:03:44;100339.66;;;2.43;100.00
59650;BME280;46162;57.568;25.814;2024-03-22T08:06:11;100343.91;;;2.45;100.00
59650;BME280;46162;57.568;25.814;2024-03-22T08:08:39;100339.28;;;2.47;100.00
59650;BME280;46162;57.568;25.814;2024-03-22T08:11:07;100337.50;;;2.48;100.00
59650;BME280;46162;57.568;25.814;2024-03-22T08:13:33;100330.34;;;2.48;100.00
59650;BME280;46162;57.568;25.814;2024-03-22T08:16:01;100334.63;;;2.51;100.00
59650;BME280;46162;57.568;25.814;2024-03-22T08:18:28;100330.25;;;2.50;100.00
59650;BME280;46162;57.568;25.814;2024-03-22T08:20:55;100328.13;;;2.55;100.00
59650;BME280;46162;57.568;25.814;2024-03-22T08:23:22;100337.81;;;2.56;100.00
59650;BME280;46162;57.568;25.814;2024-03-22T08:25:51;100328.13;;;2.55;100.00
59650;BME280;46162;57.568;25.814;2024-03-22T08:28:18;100327.91;;;2.58;100.00
59650;BME280;46162;57.568;25.814;2024-03-22T08:30:45;100325.66;;;2.52;100.00
59650;BME280;46162;57.568;25.814;2024-03-22T08:33:12;100318.09;;;2.46;100.00
59650;BME280;46162;57.568;25.814;2024-03-22T08:35:39;100317.88;;;2.49;100.00
59650;BME280;46162;57.568;25.814;2024-03-22T08:38:06;100312.88;;;2.44;100.00
59650;BME280;46162;57.568;25.814;2024-03-22T08:40:37;100313.94;;;2.42;100.00
59650;BME280;46162;57.568;25.814;2024-03-22T08:43:05;100306.09;;;2.40;100.00
59650;BME280;46162;57.568;25.814;2024-03-22T08:45:34;100311.28;;;2.42;100.00
59650;BME280;46162;57.568;25.814;2024-03-22T08:48:00;100299.56;;;2.44;100.00
59650;BME280;46162;57.568;25.814;2024-03-22T08:50:28;100291.78;;;2.41;100.00
59650;BME280;46162;57.568;25.814;2024-03-22T08:52:55;100290.19;;;2.39;100.00
59650;BME280;46162;57.568;25.814;2024-03-22T08:55:23;100289.03;;;2.43;100.00
59650;BME280;46162;57.568;25.814;2024-03-22T08:57:50;100271.63;;;2.50;100.00
59650;BME280;46162;57.568;25.814;2024-03-22T09:00:18;100274.69;;;2.56;100.00
59650;BME280;46162;57.568;25.814;2024-03-22T09:02:46;100266.25;;;2.63;100.00
59650;BME280;46162;57.568;25.814;2024-03-22T09:05:13;100261.03;;;2.61;100.00
59650;BME280;46162;57.568;25.814;2024-03-22T09:07:41;100261.03;;;2.61;100.00
59650;BME280;46162;57.568;25.814;2024-03-22T09:10:08;100254.41;;;2.67;100.00
59650;BME280;46162;57.568;25.814;2024-03-22T09:12:36;100259.53;;;2.70;100.00
59650;BME280;46162;57.568;25.814;2024-03-22T09:15:03;100265.81;;;2.69;100.00
59650;BME280;46162;57.568;25.814;2024-03-22T09:17:32;100263.28;;;2.67;100.00
59650;BME280;46162;57.568;25.814;2024-03-22T09:19:59;100263.28;;;2.67;100.00
59650;BME280;46162;57.568;25.814;2024-03-22T09:22:27;100265.53;;;2.61;100.00
59650;BME280;46162;57.568;25.814;2024-03-22T09:24:53;100260.28;;;2.59;100.00
59650;BME280;46162;57.568;25.814;2024-03-22T09:27:22;100261.50;;;2.55;100.00
59650;BME280;46162;57.568;25.814;2024-03-22T09:29:49;100255.41;;;2.53;100.00
59650;BME280;46162;57.568;25.814;2024-03-22T09:32:16;100249.13;;;2.54;100.00
59650;BME280;46162;57.568;25.814;2024-03-22T09:34:44;100239.19;;;2.56;100.00
59650;BME280;46162;57.568;25.814;2024-03-22T09:37:12;100223.97;;;2.58;100.00
59650;BME280;46162;57.568;25.814;2024-03-22T09:39:39;100229.06;;;2.61;100.00
59650;BME280;46162;57.568;25.814;2024-03-22T09:42:07;100237.06;;;2.61;100.00
59650;BME280;46162;57.568;25.814;2024-03-22T09:44:35;100223.28;;;2.67;100.00
59650;BME280;46162;57.568;25.814;2024-03-22T09:47:06;100234.81;;;2.92;100.00
59650;BME280;46162;57.568;25.814;2024-03-22T09:49:34;100223.72;;;3.09;100.00
59650;BME280;46162;57.568;25.814;2024-03-22T09:52:04;100221.81;;;3.22;100.00
59650;BME280;46162;57.568;25.814;2024-03-22T09:54:31;100212.84;;;3.23;100.00
59650;BME280;46162;57.568;25.814;2024-03-22T09:56:59;100219.75;;;3.26;100.00
59650;BME280;46162;57.568;25.814;2024-03-22T09:59:26;100210.19;;;3.23;100.00
59650;BME280;46162;57.568;25.814;2024-03-22T10:01:54;100206.31;;;3.28;100.00
59650;BME280;46162;57.568;25.814;2024-03-22T10:04:20;100208.50;;;3.34;100.00
59650;BME280;46162;57.568;25.814;2024-03-22T10:06:48;100208.38;;;3.24;100.00
59650;BME280;46162;57.568;25.814;2024-03-22T10:09:17;100197.16;;;3.08;100.00
59650;BME280;46162;57.568;25.814;2024-03-22T10:11:45;100196.44;;;3.06;100.00
59650;BME280;46162;57.568;25.814;2024-03-22T10:14:12;100199.56;;;2.99;100.00
59650;BME280;46162;57.568;25.814;2024-03-22T10:16:39;100189.50;;;3.03;100.00
59650;BME280;46162;57.568;25.814;2024-03-22T10:19:06;100192.91;;;3.05;100.00
59650;BME280;46162;57.568;25.814;2024-03-22T10:21:33;100186.38;;;3.09;100.00
59650;BME280;46162;57.568;25.814;2024-03-22T10:24:00;100182.00;;;3.08;100.00
59650;BME280;46162;57.568;25.814;2024-03-22T10:26:29;100173.16;;;3.08;100.00
59650;BME280;46162;57.568;25.814;2024-03-22T10:28:58;100173.16;;;3.08;100.00
59650;BME280;46162;57.568;25.814;2024-03-22T10:31:27;100173.91;;;3.10;100.00
59650;BME280;46162;57.568;25.814;2024-03-22T10:33:54;100161.66;;;3.07;100.00
59650;BME280;46162;57.568;25.814;2024-03-22T10:36:22;100164.19;;;3.09;100.00
59650;BME280;46162;57.568;25.814;2024-03-22T10:38:50;100169.31;;;3.12;100.00
59650;BME280;46162;57.568;25.814;2024-03-22T10:41:20;100155.84;;;3.13;100.00
59650;BME280;46162;57.568;25.814;2024-03-22T10:43:48;100152.22;;;3.14;100.00
59650;BME280;46162;57.568;25.814;2024-03-22T10:46:16;100160.91;;;3.16;100.00
59650;BME280;46162;57.568;25.814;2024-03-22T10:48:47;100152.81;;;3.18;100.00
59650;BME280;46162;57.568;25.814;2024-03-22T10:51:15;100150.63;;;3.23;100.00
59650;BME280;46162;57.568;25.814;2024-03-22T10:53:43;100146.53;;;3.30;100.00
59650;BME280;46162;57.568;25.814;2024-03-22T10:56:11;100144.47;;;3.34;100.00
59650;BME280;46162;57.568;25.814;2024-03-22T10:58:40;100143.91;;;3.41;100.00
59650;BME280;46162;57.568;25.814;2024-03-22T11:01:22;100140.75;;;3.48;100.00
59650;BME280;46162;57.568;25.814;2024-03-22T11:03:49;100127.38;;;3.48;100.00
59650;BME280;46162;57.568;25.814;2024-03-22T11:06:19;100121.44;;;3.55;100.00
59650;BME280;46162;57.568;25.814;2024-03-22T11:08:49;100116.13;;;3.55;100.00
59650;BME280;46162;57.568;25.814;2024-03-22T11:11:17;100105.91;;;3.60;100.00
59650;BME280;46162;57.568;25.814;2024-03-22T11:13:47;100095.00;;;3.63;100.00
59650;BME280;46162;57.568;25.814;2024-03-22T11:16:16;100097.56;;;3.65;100.00
59650;BME280;46162;57.568;25.814;2024-03-22T11:18:43;100101.06;;;3.65;100.00
59650;BME280;46162;57.568;25.814;2024-03-22T11:21:10;100097.44;;;3.66;100.00
59650;BME280;46162;57.568;25.814;2024-03-22T11:23:39;100083.00;;;3.69;100.00
59650;BME280;46162;57.568;25.814;2024-03-22T11:26:07;100091.00;;;3.69;100.00
59650;BME280;46162;57.568;25.814;2024-03-22T11:28:36;100078.88;;;3.65;100.00
59650;BME280;46162;57.568;25.814;2024-03-22T11:31:03;100081.53;;;3.65;100.00
59650;BME280;46162;57.568;25.814;2024-03-22T11:33:32;100089.44;;;3.66;100.00
59650;BME280;46162;57.568;25.814;2024-03-22T11:35:59;100078.75;;;3.66;100.00
59650;BME280;46162;57.568;25.814;2024-03-22T11:38:27;100079.69;;;3.65;100.00
59650;BME280;46162;57.568;25.814;2024-03-22T11:40:54;100066.25;;;3.67;100.00
59650;BME280;46162;57.568;25.814;2024-03-22T11:43:26;100073.06;;;3.71;100.00
59650;BME280;46162;57.568;25.814;2024-03-22T11:45:54;100063.94;;;3.74;100.00
59650;BME280;46162;57.568;25.814;2024-03-22T11:48:22;100064.91;;;3.73;100.00
59650;BME280;46162;57.568;25.814;2024-03-22T11:50:53;100055.94;;;3.74;100.00
59650;BME280;46162;57.568;25.814;2024-03-22T11:53:22;100058.47;;;3.75;100.00
59650;BME280;46162;57.568;25.814;2024-03-22T11:55:49;100050.59;;;3.74;100.00
59650;BME280;46162;57.568;25.814;2024-03-22T11:58:18;100047.91;;;3.74;100.00
59650;BME280;46162;57.568;25.814;2024-03-22T12:00:45;100042.69;;;3.72;100.00
59650;BME280;46162;57.568;25.814;2024-03-22T12:03:12;100041.13;;;3.70;100.00
59650;BME280;46162;57.568;25.814;2024-03-22T12:05:40;100028.88;;;3.67;100.00
59650;BME280;46162;57.568;25.814;2024-03-22T12:08:09;100023.63;;;3.77;100.00
59650;BME280;46162;57.568;25.814;2024-03-22T12:10:36;100019.50;;;3.84;100.00
59650;BME280;46162;57.568;25.814;2024-03-22T12:13:03;100012.31;;;3.96;100.00
59650;BME280;46162;57.568;25.814;2024-03-22T12:15:30;100015.09;;;3.94;100.00
59650;BME280;46162;57.568;25.814;2024-03-22T12:17:58;100012.91;;;3.99;100.00
59650;BME280;46162;57.568;25.814;2024-03-22T12:20:24;100010.94;;;4.01;100.00
59650;BME280;46162;57.568;25.814;2024-03-22T12:22:53;100004.78;;;4.01;100.00
59650;BME280;46162;57.568;25.814;2024-03-22T12:25:21;99989.84;;;3.98;100.00
59650;BME280;46162;57.568;25.814;2024-03-22T12:27:48;99980.00;;;3.99;100.00
59650;BME280;46162;57.568;25.814;2024-03-22T12:30:15;99986.44;;;3.96;100.00
59650;BME280;46162;57.568;25.814;2024-03-22T12:32:43;99972.63;;;3.91;100.00
59650;BME280;46162;57.568;25.814;2024-03-22T12:35:10;99972.38;;;3.94;100.00
59650;BME280;46162;57.568;25.814;2024-03-22T12:37:37;99967.50;;;3.99;100.00
59650;BME280;46162;57.568;25.814;2024-03-22T12:40:05;99966.50;;;4.00;100.00
59650;BME280;46162;57.568;25.814;2024-03-22T12:42:35;99974.03;;;3.95;100.00